sensor_id;sensor_type;location;lat;lon;timestamp;temperature;humidity
3562;DHT22;1795;52.074;4.754;2023-04-25T00:01:34;7.90;99.90
3562;DHT22;1795;52.074;4.754;2023-04-25T00:04:02;7.90;99.90
3562;DHT22;1795;52.074;4.754;2023-04-25T00:06:33;7.90;99.90
3562;DHT22;1795;52.074;4.754;2023-04-25T00:09:03;7.90;99.90
3562;DHT22;1795;52.074;4.754;2023-04-25T00:11:34;7.90;99.90
3562;DHT22;1795;52.074;4.754;2023-04-25T00:14:02;7.80;99.90
3562;DHT22;1795;52.074;4.754;2023-04-25T00:16:30;7.80;99.90
3562;DHT22;1795;52.074;4.754;2023-04-25T00:19:02;7.80;99.90
3562;DHT22;1795;52.074;4.754;2023-04-25T00:21:31;7.80;99.90
3562;DHT22;1795;52.074;4.754;2023-04-25T00:23:59;7.80;99.90
3562;DHT22;1795;52.074;4.754;2023-04-25T00:26:27;7.70;99.90
3562;DHT22;1795;52.074;4.754;2023-04-25T00:28:55;7.70;99.90
3562;DHT22;1795;52.074;4.754;2023-04-25T00:31:23;7.70;99.90
3562;DHT22;1795;52.074;4.754;2023-04-25T00:33:51;7.70;99.90
3562;DHT22;1795;52.074;4.754;2023-04-25T00:36:21;7.70;99.90
3562;DHT22;1795;52.074;4.754;2023-04-25T00:38:49;7.70;99.90
3562;DHT22;1795;52.074;4.754;2023-04-25T00:41:17;7.60;99.90
3562;DHT22;1795;52.074;4.754;2023-04-25T00:43:47;7.60;99.90
3562;DHT22;1795;52.074;4.754;2023-04-25T00:46:15;7.60;99.90
3562;DHT22;1795;52.074;4.754;2023-04-25T00:48:43;7.60;99.90
3562;DHT22;1795;52.074;4.754;2023-04-25T00:51:16;7.60;99.90
3562;DHT22;1795;52.074;4.754;2023-04-25T00:53:45;7.50;99.90
3562;DHT22;1795;52.074;4.754;2023-04-25T00:56:15;7.50;99.90
3562;DHT22;1795;52.074;4.754;2023-04-25T00:58:43;7.50;99.90
3562;DHT22;1795;52.074;4.754;2023-04-25T01:01:12;7.50;99.90
3562;DHT22;1795;52.074;4.754;2023-04-25T01:03:40;7.50;99.90
3562;DHT22;1795;52.074;4.754;2023-04-25T01:06:10;7.50;99.90
3562;DHT22;1795;52.074;4.754;2023-04-25T01:08:38;7.40;99.90
3562;DHT22;1795;52.074;4.754;2023-04-25T01:11:08;7.40;99.90
3562;DHT22;1795;52.074;4.754;2023-04-25T01:13:36;7.40;99.90
3562;DHT22;1795;52.074;4.754;2023-04-25T01:16:05;7.40;99.90
3562;DHT22;1795;52.074;4.754;2023-04-25T01:18:33;7.40;99.90
3562;DHT22;1795;52.074;4.754;2023-04-25T01:21:06;7.40;99.90
3562;DHT22;1795;52.074;4.754;2023-04-25T01:23:34;7.30;99.90
3562;DHT22;1795;52.074;4.754;2023-04-25T01:26:03;7.30;99.90
3562;DHT22;1795;52.074;4.754;2023-04-25T01:28:33;7.30;99.90
3562;DHT22;1795;52.074;4.754;2023-04-25T01:31:01;7.30;99.90
3562;DHT22;1795;52.074;4.754;2023-04-25T01:33:29;7.30;99.90
3562;DHT22;1795;52.074;4.754;2023-04-25T01:35:57;7.30;99.90
3562;DHT22;1795;52.074;4.754;2023-04-25T01:38:27;7.30;99.90
3562;DHT22;1795;52.074;4.754;2023-04-25T01:40:55;7.20;99.90
3562;DHT22;1795;52.074;4.754;2023-04-25T01:43:23;7.20;99.90
3562;DHT22;1795;52.074;4.754;2023-04-25T01:45:53;7.20;99.90
3562;DHT22;1795;52.074;4.754;2023-04-25T01:48:21;7.20;99.90
3562;DHT22;1795;52.074;4.754;2023-04-25T01:50:49;7.20;99.90
3562;DHT22;1795;52.074;4.754;2023-04-25T01:53:17;7.10;99.90
3562;DHT22;1795;52.074;4.754;2023-04-25T01:55:46;7.10;99.90
3562;DHT22;1795;52.074;4.754;2023-04-25T01:58:14;7.10;99.90
3562;DHT22;1795;52.074;4.754;2023-04-25T02:00:42;7.10;99.90
3562;DHT22;1795;52.074;4.754;2023-04-25T02:03:10;7.10;99.90
3562;DHT22;1795;52.074;4.754;2023-04-25T02:05:39;7.00;99.90
3562;DHT22;1795;52.074;4.754;2023-04-25T02:08:08;7.00;99.90
3562;DHT22;1795;52.074;4.754;2023-04-25T02:10:36;7.00;99.90
3562;DHT22;1795;52.074;4.754;2023-04-25T02:13:06;7.00;99.90
3562;DHT22;1795;52.074;4.754;2023-04-25T02:15:34;6.90;99.90
3562;DHT22;1795;52.074;4.754;2023-04-25T02:18:02;6.90;99.90
3562;DHT22;1795;52.074;4.754;2023-04-25T02:20:30;6.90;99.90
3562;DHT22;1795;52.074;4.754;2023-04-25T02:22:58;6.90;99.90
3562;DHT22;1795;52.074;4.754;2023-04-25T02:25:26;6.90;99.90
3562;DHT22;1795;52.074;4.754;2023-04-25T02:27:54;6.90;99.90
3562;DHT22;1795;52.074;4.754;2023-04-25T02:30:24;6.80;99.90
3562;DHT22;1795;52.074;4.754;2023-04-25T02:32:52;6.80;99.90
3562;DHT22;1795;52.074;4.754;2023-04-25T02:35:20;6.80;99.90
3562;DHT22;1795;52.074;4.754;2023-04-25T02:37:48;6.80;99.90
3562;DHT22;1795;52.074;4.754;2023-04-25T02:40:16;6.80;99.90
3562;DHT22;1795;52.074;4.754;2023-04-25T02:42:44;6.80;99.90
3562;DHT22;1795;52.074;4.754;2023-04-25T02:45:12;6.80;99.90
3562;DHT22;1795;52.074;4.754;2023-04-25T02:47:41;6.80;99.90
3562;DHT22;1795;52.074;4.754;2023-04-25T02:50:10;6.70;99.90
3562;DHT22;1795;52.074;4.754;2023-04-25T02:52:37;6.70;99.90
3562;DHT22;1795;52.074;4.754;2023-04-25T02:55:06;6.70;99.90
3562;DHT22;1795;52.074;4.754;2023-04-25T02:57:34;6.70;99.90
3562;DHT22;1795;52.074;4.754;2023-04-25T03:00:03;6.70;99.90
3562;DHT22;1795;52.074;4.754;2023-04-25T03:02:32;6.70;99.90
3562;DHT22;1795;52.074;4.754;2023-04-25T03:05:02;6.70;99.90
3562;DHT22;1795;52.074;4.754;2023-04-25T03:07:30;6.70;99.90
3562;DHT22;1795;52.074;4.754;2023-04-25T03:09:58;6.70;99.90
3562;DHT22;1795;52.074;4.754;2023-04-25T03:12:26;6.70;99.90
3562;DHT22;1795;52.074;4.754;2023-04-25T03:14:54;6.70;99.90
3562;DHT22;1795;52.074;4.754;2023-04-25T03:17:22;6.70;99.90
3562;DHT22;1795;52.074;4.754;2023-04-25T03:19:50;6.70;99.90
3562;DHT22;1795;52.074;4.754;2023-04-25T03:22:19;6.70;99.90
3562;DHT22;1795;52.074;4.754;2023-04-25T03:24:47;6.70;99.90
3562;DHT22;1795;52.074;4.754;2023-04-25T03:27:15;6.70;99.90
3562;DHT22;1795;52.074;4.754;2023-04-25T03:29:43;6.70;99.90
3562;DHT22;1795;52.074;4.754;2023-04-25T03:32:11;6.70;99.90
3562;DHT22;1795;52.074;4.754;2023-04-25T03:34:39;6.70;99.90
3562;DHT22;1795;52.074;4.754;2023-04-25T03:37:07;6.70;99.90
3562;DHT22;1795;52.074;4.754;2023-04-25T03:39:37;6.70;99.90
3562;DHT22;1795;52.074;4.754;2023-04-25T03:42:05;6.70;99.90
3562;DHT22;1795;52.074;4.754;2023-04-25T03:44:33;6.70;99.90
3562;DHT22;1795;52.074;4.754;2023-04-25T03:47:01;6.70;99.90
3562;DHT22;1795;52.074;4.754;2023-04-25T03:49:29;6.70;99.90
3562;DHT22;1795;52.074;4.754;2023-04-25T03:51:57;6.70;99.90
3562;DHT22;1795;52.074;4.754;2023-04-25T03:54:25;6.70;99.90
3562;DHT22;1795;52.074;4.754;2023-04-25T03:56:56;6.70;99.90
3562;DHT22;1795;52.074;4.754;2023-04-25T03:59:24;6.70;99.90
3562;DHT22;1795;52.074;4.754;2023-04-25T04:01:53;6.70;99.90
3562;DHT22;1795;52.074;4.754;2023-04-25T04:04:21;6.70;99.90
3562;DHT22;1795;52.074;4.754;2023-04-25T04:06:50;6.70;99.90
3562;DHT22;1795;52.074;4.754;2023-04-25T04:09:19;6.70;99.90
3562;DHT22;1795;52.074;4.754;2023-04-25T04:11:47;6.60;99.90
3562;DHT22;1795;52.074;4.754;2023-04-25T04:14:16;6.60;99.90
3562;DHT22;1795;52.074;4.754;2023-04-25T04:16:44;6.60;99.90
3562;DHT22;1795;52.074;4.754;2023-04-25T04:19:12;6.60;99.90
3562;DHT22;1795;52.074;4.754;2023-04-25T04:21:40;6.60;99.90
3562;DHT22;1795;52.074;4.754;2023-04-25T04:24:08;6.60;99.90
3562;DHT22;1795;52.074;4.754;2023-04-25T04:26:37;6.60;99.90
3562;DHT22;1795;52.074;4.754;2023-04-25T04:29:05;6.60;99.90
3562;DHT22;1795;52.074;4.754;2023-04-25T04:31:35;6.60;99.90
3562;DHT22;1795;52.074;4.754;2023-04-25T04:34:03;6.60;99.90
3562;DHT22;1795;52.074;4.754;2023-04-25T04:36:31;6.50;99.90
3562;DHT22;1795;52.074;4.754;2023-04-25T04:38:59;6.50;99.90
3562;DHT22;1795;52.074;4.754;2023-04-25T04:41:27;6.50;99.90
3562;DHT22;1795;52.074;4.754;2023-04-25T04:43:55;6.50;99.90
3562;DHT22;1795;52.074;4.754;2023-04-25T04:46:23;6.50;99.90
3562;DHT22;1795;52.074;4.754;2023-04-25T04:48:53;6.50;99.90
3562;DHT22;1795;52.074;4.754;2023-04-25T04:51:22;6.50;99.90
3562;DHT22;1795;52.074;4.754;2023-04-25T04:53:50;6.50;99.90
3562;DHT22;1795;52.074;4.754;2023-04-25T04:56:19;6.50;99.90
3562;DHT22;1795;52.074;4.754;2023-04-25T04:58:49;6.40;99.90
3562;DHT22;1795;52.074;4.754;2023-04-25T05:01:18;6.50;99.90
3562;DHT22;1795;52.074;4.754;2023-04-25T05:03:46;6.50;99.90
3562;DHT22;1795;52.074;4.754;2023-04-25T05:06:15;6.40;99.90
3562;DHT22;1795;52.074;4.754;2023-04-25T05:08:43;6.40;99.90
3562;DHT22;1795;52.074;4.754;2023-04-25T05:11:11;6.40;99.90
3562;DHT22;1795;52.074;4.754;2023-04-25T05:13:39;6.50;99.90
3562;DHT22;1795;52.074;4.754;2023-04-25T05:16:07;6.50;99.90
3562;DHT22;1795;52.074;4.754;2023-04-25T05:18:35;6.50;99.90
3562;DHT22;1795;52.074;4.754;2023-04-25T05:21:04;6.50;99.90
3562;DHT22;1795;52.074;4.754;2023-04-25T05:23:33;6.50;99.90
3562;DHT22;1795;52.074;4.754;2023-04-25T05:26:01;6.50;99.90
3562;DHT22;1795;52.074;4.754;2023-04-25T05:28:29;6.50;99.90
3562;DHT22;1795;52.074;4.754;2023-04-25T05:30:57;6.50;99.90
3562;DHT22;1795;52.074;4.754;2023-04-25T05:33:25;6.50;99.90
3562;DHT22;1795;52.074;4.754;2023-04-25T05:35:53;6.60;99.90
3562;DHT22;1795;52.074;4.754;2023-04-25T05:38:21;6.60;99.90
3562;DHT22;1795;52.074;4.754;2023-04-25T05:40:51;6.60;99.90
3562;DHT22;1795;52.074;4.754;2023-04-25T05:43:19;6.60;99.90
3562;DHT22;1795;52.074;4.754;2023-04-25T05:45:46;6.60;99.90
3562;DHT22;1795;52.074;4.754;2023-04-25T05:48:15;6.60;99.90
3562;DHT22;1795;52.074;4.754;2023-04-25T05:50:42;6.60;99.90
3562;DHT22;1795;52.074;4.754;2023-04-25T05:53:10;6.60;99.90
3562;DHT22;1795;52.074;4.754;2023-04-25T05:55:38;6.60;99.90
3562;DHT22;1795;52.074;4.754;2023-04-25T05:58:08;6.60;99.90
3562;DHT22;1795;52.074;4.754;2023-04-25T06:00:36;6.60;99.90
3562;DHT22;1795;52.074;4.754;2023-04-25T06:03:04;6.70;99.90
3562;DHT22;1795;52.074;4.754;2023-04-25T06:05:36;6.70;99.90
3562;DHT22;1795;52.074;4.754;2023-04-25T06:08:04;6.70;99.90
3562;DHT22;1795;52.074;4.754;2023-04-25T06:10:32;6.70;99.90
3562;DHT22;1795;52.074;4.754;2023-04-25T06:13:00;6.70;99.90
3562;DHT22;1795;52.074;4.754;2023-04-25T06:15:30;6.80;99.90
3562;DHT22;1795;52.074;4.754;2023-04-25T06:17:59;6.80;99.90
3562;DHT22;1795;52.074;4.754;2023-04-25T06:20:27;6.80;99.90
3562;DHT22;1795;52.074;4.754;2023-04-25T06:22:55;6.80;99.90
3562;DHT22;1795;52.074;4.754;2023-04-25T06:25:23;6.80;99.90
3562;DHT22;1795;52.074;4.754;2023-04-25T06:27:51;6.80;99.90
3562;DHT22;1795;52.074;4.754;2023-04-25T06:30:19;6.80;99.90
3562;DHT22;1795;52.074;4.754;2023-04-25T06:32:51;6.90;99.90
3562;DHT22;1795;52.074;4.754;2023-04-25T06:35:19;6.90;99.90
3562;DHT22;1795;52.074;4.754;2023-04-25T06:37:47;6.90;99.90
3562;DHT22;1795;52.074;4.754;2023-04-25T06:40:15;6.90;99.90
3562;DHT22;1795;52.074;4.754;2023-04-25T06:42:44;6.90;99.90
3562;DHT22;1795;52.074;4.754;2023-04-25T06:45:12;7.00;99.90
3562;DHT22;1795;52.074;4.754;2023-04-25T06:47:39;7.00;99.90
3562;DHT22;1795;52.074;4.754;2023-04-25T06:50:09;7.00;99.90
3562;DHT22;1795;52.074;4.754;2023-04-25T06:52:38;7.00;99.90
3562;DHT22;1795;52.074;4.754;2023-04-25T06:55:06;7.10;99.90
3562;DHT22;1795;52.074;4.754;2023-04-25T06:57:34;7.10;99.90
3562;DHT22;1795;52.074;4.754;2023-04-25T07:00:03;7.10;99.90
3562;DHT22;1795;52.074;4.754;2023-04-25T07:02:35;7.20;99.90
3562;DHT22;1795;52.074;4.754;2023-04-25T07:05:03;7.20;99.90
3562;DHT22;1795;52.074;4.754;2023-04-25T07:07:33;7.30;99.90
3562;DHT22;1795;52.074;4.754;2023-04-25T07:10:01;7.30;99.90
3562;DHT22;1795;52.074;4.754;2023-04-25T07:12:29;7.40;99.90
3562;DHT22;1795;52.074;4.754;2023-04-25T07:14:57;7.40;99.90
3562;DHT22;1795;52.074;4.754;2023-04-25T07:17:25;7.50;99.90
3562;DHT22;1795;52.074;4.754;2023-04-25T07:19:53;7.50;99.90
3562;DHT22;1795;52.074;4.754;2023-04-25T07:22:21;7.60;99.90
3562;DHT22;1795;52.074;4.754;2023-04-25T07:24:50;7.70;99.90
3562;DHT22;1795;52.074;4.754;2023-04-25T07:27:19;7.70;99.90
3562;DHT22;1795;52.074;4.754;2023-04-25T07:29:47;7.80;99.90
3562;DHT22;1795;52.074;4.754;2023-04-25T07:32:15;7.80;99.90
3562;DHT22;1795;52.074;4.754;2023-04-25T07:34:43;7.90;99.90
3562;DHT22;1795;52.074;4.754;2023-04-25T07:37:11;7.90;99.90
3562;DHT22;1795;52.074;4.754;2023-04-25T07:39:40;8.00;99.90
3562;DHT22;1795;52.074;4.754;2023-04-25T07:42:10;8.10;99.90
3562;DHT22;1795;52.074;4.754;2023-04-25T07:44:38;8.10;99.90
3562;DHT22;1795;52.074;4.754;2023-04-25T07:47:07;8.20;99.90
3562;DHT22;1795;52.074;4.754;2023-04-25T07:49:35;8.30;99.90
3562;DHT22;1795;52.074;4.754;2023-04-25T07:52:04;8.30;99.90
3562;DHT22;1795;52.074;4.754;2023-04-25T07:54:33;8.40;99.90
3562;DHT22;1795;52.074;4.754;2023-04-25T07:57:01;8.40;99.90
3562;DHT22;1795;52.074;4.754;2023-04-25T07:59:30;8.50;99.90
3562;DHT22;1795;52.074;4.754;2023-04-25T08:01:58;8.50;99.90
3562;DHT22;1795;52.074;4.754;2023-04-25T08:04:26;8.60;99.90
3562;DHT22;1795;52.074;4.754;2023-04-25T08:06:55;8.60;99.90
3562;DHT22;1795;52.074;4.754;2023-04-25T08:09:23;8.70;99.90
3562;DHT22;1795;52.074;4.754;2023-04-25T08:11:51;8.80;99.90
3562;DHT22;1795;52.074;4.754;2023-04-25T08:14:19;8.80;99.90
3562;DHT22;1795;52.074;4.754;2023-04-25T08:16:48;8.80;99.90
3562;DHT22;1795;52.074;4.754;2023-04-25T08:19:17;8.90;99.90
3562;DHT22;1795;52.074;4.754;2023-04-25T08:21:44;8.90;99.90
3562;DHT22;1795;52.074;4.754;2023-04-25T08:24:13;9.00;99.90
3562;DHT22;1795;52.074;4.754;2023-04-25T08:26:40;9.00;99.90
3562;DHT22;1795;52.074;4.754;2023-04-25T08:29:09;9.10;99.90
3562;DHT22;1795;52.074;4.754;2023-04-25T08:31:37;9.10;99.90
3562;DHT22;1795;52.074;4.754;2023-04-25T08:34:06;9.10;99.90
3562;DHT22;1795;52.074;4.754;2023-04-25T08:36:34;9.20;99.90
3562;DHT22;1795;52.074;4.754;2023-04-25T08:39:06;9.20;99.90
3562;DHT22;1795;52.074;4.754;2023-04-25T08:41:35;9.30;99.90
3562;DHT22;1795;52.074;4.754;2023-04-25T08:44:05;9.30;99.90
3562;DHT22;1795;52.074;4.754;2023-04-25T08:46:34;9.40;99.90
3562;DHT22;1795;52.074;4.754;2023-04-25T08:49:02;9.40;99.90
3562;DHT22;1795;52.074;4.754;2023-04-25T08:51:32;9.50;99.90
3562;DHT22;1795;52.074;4.754;2023-04-25T08:54:08;9.50;99.90
3562;DHT22;1795;52.074;4.754;2023-04-25T09:00:37;9.60;99.90
3562;DHT22;1795;52.074;4.754;2023-04-25T09:03:46;9.70;99.90
3562;DHT22;1795;52.074;4.754;2023-04-25T09:06:16;9.70;99.90
3562;DHT22;1795;52.074;4.754;2023-04-25T09:08:46;9.70;99.90
3562;DHT22;1795;52.074;4.754;2023-04-25T09:11:14;9.80;99.90
3562;DHT22;1795;52.074;4.754;2023-04-25T09:13:43;9.80;99.90
3562;DHT22;1795;52.074;4.754;2023-04-25T09:16:11;9.80;99.90
3562;DHT22;1795;52.074;4.754;2023-04-25T09:18:41;9.80;99.90
3562;DHT22;1795;52.074;4.754;2023-04-25T09:21:14;9.60;99.90
3562;DHT22;1795;52.074;4.754;2023-04-25T09:23:46;9.50;99.90
3562;DHT22;1795;52.074;4.754;2023-04-25T09:26:15;9.50;99.90
3562;DHT22;1795;52.074;4.754;2023-04-25T09:28:45;9.40;99.90
3562;DHT22;1795;52.074;4.754;2023-04-25T09:31:21;9.30;99.90
3562;DHT22;1795;52.074;4.754;2023-04-25T09:33:49;9.30;99.90
3562;DHT22;1795;52.074;4.754;2023-04-25T09:36:26;9.20;99.90
3562;DHT22;1795;52.074;4.754;2023-04-25T09:38:55;9.10;99.90
3562;DHT22;1795;52.074;4.754;2023-04-25T09:41:24;9.10;99.90
3562;DHT22;1795;52.074;4.754;2023-04-25T09:43:56;9.10;99.90
3562;DHT22;1795;52.074;4.754;2023-04-25T09:46:25;9.10;99.90
3562;DHT22;1795;52.074;4.754;2023-04-25T09:49:06;9.20;99.90
3562;DHT22;1795;52.074;4.754;2023-04-25T09:51:34;9.20;99.90
3562;DHT22;1795;52.074;4.754;2023-04-25T09:54:03;9.30;99.90
3562;DHT22;1795;52.074;4.754;2023-04-25T09:56:36;9.40;99.90
3562;DHT22;1795;52.074;4.754;2023-04-25T09:59:04;9.50;99.90
3562;DHT22;1795;52.074;4.754;2023-04-25T10:01:33;9.50;99.90
3562;DHT22;1795;52.074;4.754;2023-04-25T10:04:03;9.60;99.90
3562;DHT22;1795;52.074;4.754;2023-04-25T10:06:34;9.70;99.90
3562;DHT22;1795;52.074;4.754;2023-04-25T10:09:04;9.70;99.90
3562;DHT22;1795;52.074;4.754;2023-04-25T10:11:35;9.80;99.90
3562;DHT22;1795;52.074;4.754;2023-04-25T10:14:03;9.80;99.90
3562;DHT22;1795;52.074;4.754;2023-04-25T10:16:32;9.90;99.90
3562;DHT22;1795;52.074;4.754;2023-04-25T10:19:01;10.00;99.90
3562;DHT22;1795;52.074;4.754;2023-04-25T10:21:32;10.10;99.90
3562;DHT22;1795;52.074;4.754;2023-04-25T10:24:04;10.10;99.90
3562;DHT22;1795;52.074;4.754;2023-04-25T10:26:32;10.10;99.90
3562;DHT22;1795;52.074;4.754;2023-04-25T10:29:01;10.20;99.90
3562;DHT22;1795;52.074;4.754;2023-04-25T10:31:29;10.30;99.90
3562;DHT22;1795;52.074;4.754;2023-04-25T10:33:59;10.40;99.90
3562;DHT22;1795;52.074;4.754;2023-04-25T10:36:31;10.40;99.90
3562;DHT22;1795;52.074;4.754;2023-04-25T10:39:05;10.50;99.90
3562;DHT22;1795;52.074;4.754;2023-04-25T10:41:48;10.60;99.90
3562;DHT22;1795;52.074;4.754;2023-04-25T10:44:19;10.70;99.90
3562;DHT22;1795;52.074;4.754;2023-04-25T10:46:47;10.70;99.90
3562;DHT22;1795;52.074;4.754;2023-04-25T10:49:29;10.80;99.90
3562;DHT22;1795;52.074;4.754;2023-04-25T10:52:17;10.80;99.90
3562;DHT22;1795;52.074;4.754;2023-04-25T10:54:52;10.80;99.90
3562;DHT22;1795;52.074;4.754;2023-04-25T10:57:28;10.70;99.90
3562;DHT22;1795;52.074;4.754;2023-04-25T10:59:59;10.60;99.90
3562;DHT22;1795;52.074;4.754;2023-04-25T11:02:28;10.60;99.90
3562;DHT22;1795;52.074;4.754;2023-04-25T11:04:56;10.60;99.90
3562;DHT22;1795;52.074;4.754;2023-04-25T11:07:33;10.60;99.90
3562;DHT22;1795;52.074;4.754;2023-04-25T11:10:04;10.70;99.90
3562;DHT22;1795;52.074;4.754;2023-04-25T11:12:33;10.70;99.90
3562;DHT22;1795;52.074;4.754;2023-04-25T11:15:02;10.80;99.90
3562;DHT22;1795;52.074;4.754;2023-04-25T11:17:30;10.80;99.90
3562;DHT22;1795;52.074;4.754;2023-04-25T11:19:58;10.90;99.90
3562;DHT22;1795;52.074;4.754;2023-04-25T11:22:27;10.90;99.90
3562;DHT22;1795;52.074;4.754;2023-04-25T11:24:56;11.00;99.90
3562;DHT22;1795;52.074;4.754;2023-04-25T11:27:25;11.00;99.90
3562;DHT22;1795;52.074;4.754;2023-04-25T11:29:53;11.10;99.90
3562;DHT22;1795;52.074;4.754;2023-04-25T11:32:21;11.20;99.90
3562;DHT22;1795;52.074;4.754;2023-04-25T11:34:52;11.30;99.90
3562;DHT22;1795;52.074;4.754;2023-04-25T11:37:21;11.30;99.90
3562;DHT22;1795;52.074;4.754;2023-04-25T11:39:49;11.20;99.90
3562;DHT22;1795;52.074;4.754;2023-04-25T11:42:17;11.10;99.90
3562;DHT22;1795;52.074;4.754;2023-04-25T11:44:46;11.00;99.90
3562;DHT22;1795;52.074;4.754;2023-04-25T11:47:14;11.00;99.90
3562;DHT22;1795;52.074;4.754;2023-04-25T11:49:42;11.00;99.90
3562;DHT22;1795;52.074;4.754;2023-04-25T11:52:10;11.10;99.90
3562;DHT22;1795;52.074;4.754;2023-04-25T11:54:38;11.10;99.90
3562;DHT22;1795;52.074;4.754;2023-04-25T11:57:06;11.00;99.90
3562;DHT22;1795;52.074;4.754;2023-04-25T11:59:34;11.00;99.90
3562;DHT22;1795;52.074;4.754;2023-04-25T12:02:03;11.10;99.90
3562;DHT22;1795;52.074;4.754;2023-04-25T12:04:33;11.20;99.90
3562;DHT22;1795;52.074;4.754;2023-04-25T12:07:02;11.30;99.90
3562;DHT22;1795;52.074;4.754;2023-04-25T12:09:31;11.40;99.90
3562;DHT22;1795;52.074;4.754;2023-04-25T12:12:01;11.50;99.90
3562;DHT22;1795;52.074;4.754;2023-04-25T12:14:31;11.60;99.90
3562;DHT22;1795;52.074;4.754;2023-04-25T12:17:01;11.50;99.90
3562;DHT22;1795;52.074;4.754;2023-04-25T12:19:33;11.50;99.90
3562;DHT22;1795;52.074;4.754;2023-04-25T12:22:03;11.50;99.90
3562;DHT22;1795;52.074;4.754;2023-04-25T12:24:33;11.40;99.90
3562;DHT22;1795;52.074;4.754;2023-04-25T12:27:06;11.40;99.90
3562;DHT22;1795;52.074;4.754;2023-04-25T12:29:35;11.30;99.90
3562;DHT22;1795;52.074;4.754;2023-04-25T12:32:15;11.30;99.90
3562;DHT22;1795;52.074;4.754;2023-04-25T12:34:44;11.40;99.90
3562;DHT22;1795;52.074;4.754;2023-04-25T12:37:12;11.40;99.90
3562;DHT22;1795;52.074;4.754;2023-04-25T12:39:41;11.40;99.90
3562;DHT22;1795;52.074;4.754;2023-04-25T12:42:09;11.40;99.90
3562;DHT22;1795;52.074;4.754;2023-04-25T12:44:39;11.40;99.90
3562;DHT22;1795;52.074;4.754;2023-04-25T12:47:07;11.50;99.90
3562;DHT22;1795;52.074;4.754;2023-04-25T12:49:35;11.60;99.90
3562;DHT22;1795;52.074;4.754;2023-04-25T12:52:04;11.50;99.90
3562;DHT22;1795;52.074;4.754;2023-04-25T12:54:32;11.40;99.90
3562;DHT22;1795;52.074;4.754;2023-04-25T12:57:00;11.40;99.90
3562;DHT22;1795;52.074;4.754;2023-04-25T12:59:29;11.50;99.90
3562;DHT22;1795;52.074;4.754;2023-04-25T13:01:57;11.60;99.90
3562;DHT22;1795;52.074;4.754;2023-04-25T13:04:25;11.60;99.90
3562;DHT22;1795;52.074;4.754;2023-04-25T13:06:53;11.50;99.90
3562;DHT22;1795;52.074;4.754;2023-04-25T13:09:23;11.50;99.90
3562;DHT22;1795;52.074;4.754;2023-04-25T13:11:51;11.60;99.90
3562;DHT22;1795;52.074;4.754;2023-04-25T13:14:23;11.50;99.90
3562;DHT22;1795;52.074;4.754;2023-04-25T13:16:50;11.70;99.90
3562;DHT22;1795;52.074;4.754;2023-04-25T13:19:19;11.70;99.90
3562;DHT22;1795;52.074;4.754;2023-04-25T13:21:47;11.80;99.90
3562;DHT22;1795;52.074;4.754;2023-04-25T13:24:15;11.80;99.90
3562;DHT22;1795;52.074;4.754;2023-04-25T13:26:44;11.60;99.90
3562;DHT22;1795;52.074;4.754;2023-04-25T13:29:12;11.50;99.90
3562;DHT22;1795;52.074;4.754;2023-04-25T13:31:40;11.40;99.90
3562;DHT22;1795;52.074;4.754;2023-04-25T13:34:08;11.30;99.90
3562;DHT22;1795;52.074;4.754;2023-04-25T13:36:36;11.20;99.90
3562;DHT22;1795;52.074;4.754;2023-04-25T13:39:04;11.20;99.90
3562;DHT22;1795;52.074;4.754;2023-04-25T13:41:33;11.00;99.90
3562;DHT22;1795;52.074;4.754;2023-04-25T13:44:02;11.00;99.90
3562;DHT22;1795;52.074;4.754;2023-04-25T13:46:30;11.00;99.90
3562;DHT22;1795;52.074;4.754;2023-04-25T13:49:01;11.00;99.90
3562;DHT22;1795;52.074;4.754;2023-04-25T13:51:38;11.10;99.90
3562;DHT22;1795;52.074;4.754;2023-04-25T13:54:06;11.30;99.90
3562;DHT22;1795;52.074;4.754;2023-04-25T13:56:34;11.40;99.90
3562;DHT22;1795;52.074;4.754;2023-04-25T13:59:03;11.50;99.90
3562;DHT22;1795;52.074;4.754;2023-04-25T14:01:31;11.60;99.90
3562;DHT22;1795;52.074;4.754;2023-04-25T14:04:02;11.70;99.90
3562;DHT22;1795;52.074;4.754;2023-04-25T14:06:31;11.80;99.90
3562;DHT22;1795;52.074;4.754;2023-04-25T14:08:59;11.70;99.90
3562;DHT22;1795;52.074;4.754;2023-04-25T14:11:28;11.70;99.90
3562;DHT22;1795;52.074;4.754;2023-04-25T14:13:56;11.90;99.90
3562;DHT22;1795;52.074;4.754;2023-04-25T14:16:25;12.00;99.90
3562;DHT22;1795;52.074;4.754;2023-04-25T14:18:53;12.00;99.90
3562;DHT22;1795;52.074;4.754;2023-04-25T14:21:22;12.10;99.90
3562;DHT22;1795;52.074;4.754;2023-04-25T14:23:50;12.10;99.90
3562;DHT22;1795;52.074;4.754;2023-04-25T14:26:18;12.20;99.90
3562;DHT22;1795;52.074;4.754;2023-04-25T14:28:46;12.40;99.90
3562;DHT22;1795;52.074;4.754;2023-04-25T14:31:14;12.60;99.90
3562;DHT22;1795;52.074;4.754;2023-04-25T14:33:43;12.70;99.90
3562;DHT22;1795;52.074;4.754;2023-04-25T14:36:12;12.70;99.90
3562;DHT22;1795;52.074;4.754;2023-04-25T14:38:40;12.70;99.90
3562;DHT22;1795;52.074;4.754;2023-04-25T14:41:09;12.70;99.90
3562;DHT22;1795;52.074;4.754;2023-04-25T14:43:37;12.80;99.40
3562;DHT22;1795;52.074;4.754;2023-04-25T14:46:06;12.70;98.30
3562;DHT22;1795;52.074;4.754;2023-04-25T14:48:34;12.80;98.70
3562;DHT22;1795;52.074;4.754;2023-04-25T14:51:04;12.80;98.70
3562;DHT22;1795;52.074;4.754;2023-04-25T14:53:32;12.80;99.80
3562;DHT22;1795;52.074;4.754;2023-04-25T14:56:00;12.90;99.90
3562;DHT22;1795;52.074;4.754;2023-04-25T14:58:27;13.00;99.70
3562;DHT22;1795;52.074;4.754;2023-04-25T15:00:55;13.10;99.00
3562;DHT22;1795;52.074;4.754;2023-04-25T15:03:23;12.80;97.90
3562;DHT22;1795;52.074;4.754;2023-04-25T15:05:52;12.60;97.60
3562;DHT22;1795;52.074;4.754;2023-04-25T15:08:22;12.50;97.50
3562;DHT22;1795;52.074;4.754;2023-04-25T15:10:50;12.40;98.60
3562;DHT22;1795;52.074;4.754;2023-04-25T15:13:18;12.30;99.50
3562;DHT22;1795;52.074;4.754;2023-04-25T15:15:46;12.50;98.40
3562;DHT22;1795;52.074;4.754;2023-04-25T15:18:19;12.60;98.60
3562;DHT22;1795;52.074;4.754;2023-04-25T15:20:48;12.50;99.00
3562;DHT22;1795;52.074;4.754;2023-04-25T15:23:17;12.50;99.90
3562;DHT22;1795;52.074;4.754;2023-04-25T15:25:46;12.60;99.90
3562;DHT22;1795;52.074;4.754;2023-04-25T15:28:14;12.80;99.90
3562;DHT22;1795;52.074;4.754;2023-04-25T15:30:43;12.80;99.90
3562;DHT22;1795;52.074;4.754;2023-04-25T15:33:11;13.00;99.90
3562;DHT22;1795;52.074;4.754;2023-04-25T15:35:40;12.80;99.90
3562;DHT22;1795;52.074;4.754;2023-04-25T15:38:08;12.70;99.90
3562;DHT22;1795;52.074;4.754;2023-04-25T15:40:37;12.60;99.90
3562;DHT22;1795;52.074;4.754;2023-04-25T15:43:06;12.60;99.90
3562;DHT22;1795;52.074;4.754;2023-04-25T15:45:40;12.60;99.90
3562;DHT22;1795;52.074;4.754;2023-04-25T15:48:09;12.60;99.90
3562;DHT22;1795;52.074;4.754;2023-04-25T15:50:37;12.60;99.50
3562;DHT22;1795;52.074;4.754;2023-04-25T15:53:05;12.60;98.80
3562;DHT22;1795;52.074;4.754;2023-04-25T15:55:33;12.60;99.50
3562;DHT22;1795;52.074;4.754;2023-04-25T15:58:02;12.70;99.90
3562;DHT22;1795;52.074;4.754;2023-04-25T16:00:31;12.70;99.90
3562;DHT22;1795;52.074;4.754;2023-04-25T16:03:01;12.70;99.90
3562;DHT22;1795;52.074;4.754;2023-04-25T16:05:32;12.80;99.70
3562;DHT22;1795;52.074;4.754;2023-04-25T16:07:59;12.90;99.10
3562;DHT22;1795;52.074;4.754;2023-04-25T16:10:29;12.80;99.00
3562;DHT22;1795;52.074;4.754;2023-04-25T16:12:57;12.80;98.90
3562;DHT22;1795;52.074;4.754;2023-04-25T16:15:25;12.70;99.20
3562;DHT22;1795;52.074;4.754;2023-04-25T16:17:54;12.50;99.60
3562;DHT22;1795;52.074;4.754;2023-04-25T16:20:22;12.20;98.80
3562;DHT22;1795;52.074;4.754;2023-04-25T16:22:50;12.00;98.80
3562;DHT22;1795;52.074;4.754;2023-04-25T16:25:18;12.10;98.90
3562;DHT22;1795;52.074;4.754;2023-04-25T16:27:47;12.00;98.80